createdAt,value
2016-12-28T00:00:39.970Z,977.64
2016-12-28T00:01:30.434Z,977.64
2016-12-28T00:02:34.381Z,977.67
2016-12-28T00:03:38.999Z,977.60
2016-12-28T00:04:46.261Z,977.59
2016-12-28T00:05:37.483Z,977.62
2016-12-28T00:06:49.802Z,977.65
2016-12-28T00:07:46.637Z,977.68
2016-12-28T00:08:40.798Z,977.68
2016-12-28T00:09:44.952Z,977.68
2016-12-28T00:10:38.870Z,977.64
2016-12-28T00:11:35.068Z,977.59
2016-12-28T00:12:39.829Z,977.58
2016-12-28T00:13:44.683Z,977.55
2016-12-28T00:14:40.297Z,977.53
2016-12-28T00:15:39.934Z,977.51
2016-12-28T00:16:39.754Z,977.52
2016-12-28T00:17:55.826Z,977.53
2016-12-28T00:18:44.880Z,977.55
2016-12-28T00:19:40.112Z,977.54
2016-12-28T00:20:47.835Z,977.51
2016-12-28T00:21:42.766Z,977.47
2016-12-28T00:22:39.276Z,977.48
2016-12-28T00:23:49.435Z,977.40
2016-12-28T00:24:45.499Z,977.47
2016-12-28T00:25:44.536Z,977.47
2016-12-28T00:26:43.415Z,977.49
2016-12-28T00:27:45.541Z,977.47
2016-12-28T00:28:43.955Z,977.42
2016-12-28T00:29:45.075Z,977.45
2016-12-28T00:30:45.182Z,977.46
2016-12-28T00:31:32.221Z,977.48
2016-12-28T00:32:40.606Z,977.46
2016-12-28T00:33:34.234Z,977.48
2016-12-28T00:34:40.338Z,977.44
2016-12-28T00:35:44.016Z,977.47
2016-12-28T00:36:41.789Z,977.43
2016-12-28T00:37:46.101Z,977.41
2016-12-28T00:38:50.663Z,977.41
2016-12-28T00:39:42.557Z,977.39
2016-12-28T00:40:51.291Z,977.41
2016-12-28T00:41:38.422Z,977.40
2016-12-28T00:42:41.890Z,977.39
2016-12-28T00:43:46.182Z,977.45
2016-12-28T00:44:35.145Z,977.39
2016-12-28T00:45:44.764Z,977.44
2016-12-28T00:46:39.689Z,977.44
2016-12-28T00:47:45.028Z,977.44
2016-12-28T00:48:41.231Z,977.45
2016-12-28T00:49:44.797Z,977.42
2016-12-28T00:50:37.949Z,977.39
2016-12-28T00:51:38.728Z,977.44
2016-12-28T00:52:32.838Z,977.44
2016-12-28T00:53:32.817Z,977.46
2016-12-28T00:54:39.805Z,977.51
2016-12-28T00:55:38.744Z,977.52
2016-12-28T00:56:34.502Z,977.51
2016-12-28T00:57:38.861Z,977.47
2016-12-28T00:58:42.741Z,977.50
2016-12-28T00:59:40.495Z,977.53
2016-12-28T01:00:32.190Z,977.49
2016-12-28T01:01:43.635Z,977.50
2016-12-28T01:02:39.516Z,977.46
2016-12-28T01:03:45.791Z,977.49
2016-12-28T01:04:46.998Z,977.49
2016-12-28T01:05:39.406Z,977.46
2016-12-28T01:06:38.914Z,977.50
2016-12-28T01:07:39.379Z,977.46
2016-12-28T01:08:34.167Z,977.55
2016-12-28T01:09:39.508Z,977.57
2016-12-28T01:10:50.294Z,977.62
2016-12-28T01:11:43.647Z,977.62
2016-12-28T01:12:50.452Z,977.56
2016-12-28T01:13:42.746Z,977.60
2016-12-28T01:14:47.137Z,977.62
2016-12-28T01:15:47.029Z,977.63
2016-12-28T01:16:30.112Z,977.64
2016-12-28T01:17:42.422Z,977.66
2016-12-28T01:18:49.766Z,977.65
2016-12-28T01:19:40.019Z,977.67
2016-12-28T01:20:38.971Z,977.65
2016-12-28T01:21:46.398Z,977.63
2016-12-28T01:22:32.977Z,977.68
2016-12-28T01:23:38.039Z,977.67
2016-12-28T01:24:39.774Z,977.73
2016-12-28T01:25:46.507Z,977.67
2016-12-28T01:26:44.979Z,977.68
2016-12-28T01:27:44.570Z,977.63
2016-12-28T01:28:37.661Z,977.70
2016-12-28T01:29:38.727Z,977.69
2016-12-28T01:30:34.075Z,977.72
2016-12-28T01:31:39.067Z,977.69
2016-12-28T01:32:43.555Z,977.72
2016-12-28T01:33:38.581Z,977.74
2016-12-28T01:34:45.239Z,977.75
2016-12-28T01:35:39.977Z,977.73
2016-12-28T01:36:43.863Z,977.79
2016-12-28T01:37:34.105Z,977.79
2016-12-28T01:38:40.564Z,977.82
2016-12-28T01:39:39.565Z,977.82
2016-12-28T01:40:39.092Z,977.90
2016-12-28T01:41:33.727Z,977.89
2016-12-28T01:42:46.005Z,977.86
2016-12-28T01:43:39.075Z,977.88
2016-12-28T01:44:45.129Z,977.91
2016-12-28T01:45:39.109Z,977.94
2016-12-28T01:46:39.059Z,977.91
2016-12-28T01:47:39.481Z,977.94
2016-12-28T01:48:41.132Z,977.86
2016-12-28T01:49:44.657Z,977.88
2016-12-28T01:50:27.394Z,977.89
2016-12-28T01:51:39.564Z,977.89
2016-12-28T01:52:39.726Z,978.00
2016-12-28T01:53:48.779Z,978.03
2016-12-28T01:54:42.260Z,978.09
2016-12-28T01:55:43.698Z,978.06
2016-12-28T01:56:41.839Z,978.08
2016-12-28T01:57:42.770Z,978.07
2016-12-28T01:58:50.157Z,978.12
2016-12-28T01:59:28.268Z,978.17
2016-12-28T02:00:35.822Z,978.21
2016-12-28T02:01:40.218Z,978.21
2016-12-28T02:02:40.254Z,978.12
2016-12-28T02:03:39.641Z,978.06
2016-12-28T02:04:44.178Z,977.96
2016-12-28T02:05:39.781Z,977.86
2016-12-28T02:06:43.264Z,977.81
2016-12-28T02:07:39.497Z,977.77
2016-12-28T02:08:41.896Z,977.72
2016-12-28T02:09:39.867Z,977.77
2016-12-28T02:10:33.683Z,977.76
2016-12-28T02:11:40.058Z,977.79
2016-12-28T02:12:41.367Z,977.83
2016-12-28T02:13:40.182Z,977.83
2016-12-28T02:14:39.064Z,977.83
2016-12-28T02:15:58.455Z,977.74
2016-12-28T02:16:41.464Z,977.80
2016-12-28T02:17:45.321Z,977.81
2016-12-28T02:18:45.180Z,977.80
2016-12-28T02:19:39.148Z,977.78
2016-12-28T02:20:39.038Z,977.74
2016-12-28T02:21:41.683Z,977.79
2016-12-28T02:22:36.256Z,977.77
2016-12-28T02:23:42.688Z,977.78
2016-12-28T02:24:39.519Z,977.78
2016-12-28T02:25:40.526Z,977.81
2016-12-28T02:26:43.466Z,977.78
2016-12-28T02:27:45.191Z,977.80
2016-12-28T02:28:38.585Z,977.83
2016-12-28T02:29:35.573Z,977.83
2016-12-28T02:30:40.553Z,977.77
2016-12-28T02:31:40.164Z,977.77
2016-12-28T02:32:39.122Z,977.84
2016-12-28T02:33:40.412Z,977.81
2016-12-28T02:34:39.189Z,977.79
2016-12-28T02:35:37.010Z,977.80
2016-12-28T02:36:39.176Z,977.83
2016-12-28T02:37:45.417Z,977.79
2016-12-28T02:38:35.489Z,977.72
2016-12-28T02:39:38.197Z,977.73
2016-12-28T02:40:39.195Z,977.72
2016-12-28T02:41:42.340Z,977.76
2016-12-28T02:42:48.177Z,977.75
2016-12-28T02:43:40.431Z,977.70
2016-12-28T02:44:44.717Z,977.73
2016-12-28T02:45:39.183Z,977.76
2016-12-28T02:46:39.243Z,977.74
2016-12-28T02:47:38.645Z,977.79
2016-12-28T02:48:38.758Z,977.78
2016-12-28T02:49:40.738Z,977.78
2016-12-28T02:50:42.668Z,977.79
2016-12-28T02:51:39.480Z,977.82
2016-12-28T02:52:39.273Z,977.84
2016-12-28T02:53:44.775Z,977.88
2016-12-28T02:54:38.269Z,977.88
2016-12-28T02:55:44.068Z,977.86
2016-12-28T02:56:50.470Z,977.80
2016-12-28T02:57:40.427Z,977.81
2016-12-28T02:58:34.960Z,977.71
2016-12-28T02:59:49.549Z,977.66
2016-12-28T03:00:45.598Z,977.65
2016-12-28T03:01:41.684Z,977.61
2016-12-28T03:02:52.481Z,977.56
2016-12-28T03:03:41.850Z,977.52
2016-12-28T03:04:39.285Z,977.47
2016-12-28T03:05:48.267Z,977.47
2016-12-28T03:06:41.214Z,977.43
2016-12-28T03:07:45.905Z,977.43
2016-12-28T03:08:40.185Z,977.39
2016-12-28T03:09:45.394Z,977.42
2016-12-28T03:10:39.306Z,977.41
2016-12-28T03:11:46.195Z,977.39
2016-12-28T03:12:38.543Z,977.41
2016-12-28T03:13:43.214Z,977.40
2016-12-28T03:14:42.536Z,977.40
2016-12-28T03:15:38.903Z,977.48
2016-12-28T03:16:39.541Z,977.47
2016-12-28T03:17:38.761Z,977.46
2016-12-28T03:18:45.685Z,977.50
2016-12-28T03:19:38.848Z,977.46
2016-12-28T03:20:41.315Z,977.45
2016-12-28T03:21:43.662Z,977.50
2016-12-28T03:22:49.903Z,977.53
2016-12-28T03:23:40.691Z,977.59
2016-12-28T03:24:46.832Z,977.55
2016-12-28T03:25:39.833Z,977.55
2016-12-28T03:26:44.004Z,977.56
2016-12-28T03:27:41.288Z,977.63
2016-12-28T03:28:38.347Z,977.66
2016-12-28T03:29:45.437Z,977.68
2016-12-28T03:30:34.711Z,977.69
2016-12-28T03:31:39.948Z,977.65
2016-12-28T03:32:43.721Z,977.66
2016-12-28T03:33:44.268Z,977.59
2016-12-28T03:34:39.457Z,977.59
2016-12-28T03:35:42.851Z,977.55
2016-12-28T03:36:37.504Z,977.55
2016-12-28T03:37:39.791Z,977.53
2016-12-28T03:38:39.355Z,977.52
2016-12-28T03:39:38.456Z,977.59
2016-12-28T03:40:39.344Z,977.57
2016-12-28T03:41:41.989Z,977.56
2016-12-28T03:42:39.529Z,977.55
2016-12-28T03:43:34.526Z,977.47
2016-12-28T03:44:39.217Z,977.48
2016-12-28T03:46:22.499Z,977.47
2016-12-28T03:46:38.644Z,977.50
2016-12-28T03:47:39.784Z,977.53
2016-12-28T03:48:39.354Z,977.54
2016-12-28T03:49:39.998Z,977.55
2016-12-28T03:50:40.526Z,977.55
2016-12-28T03:51:44.275Z,977.60
2016-12-28T03:52:38.776Z,977.52
2016-12-28T03:53:41.043Z,977.56
2016-12-28T03:54:43.156Z,977.54
2016-12-28T03:55:42.590Z,977.48
2016-12-28T03:56:42.046Z,977.47
2016-12-28T03:57:46.162Z,977.51
2016-12-28T03:58:40.717Z,977.52
2016-12-28T03:59:35.657Z,977.53
2016-12-28T04:00:40.384Z,977.58
2016-12-28T04:01:45.571Z,977.57
2016-12-28T04:02:38.364Z,977.56
2016-12-28T04:03:38.384Z,977.59
2016-12-28T04:04:37.370Z,977.57
2016-12-28T04:05:49.534Z,977.59
2016-12-28T04:06:44.214Z,977.61
2016-12-28T04:07:38.780Z,977.67
2016-12-28T04:08:39.822Z,977.65
2016-12-28T04:09:40.493Z,977.68
2016-12-28T04:10:39.321Z,977.70
2016-12-28T04:11:45.486Z,977.72
2016-12-28T04:12:44.667Z,977.73
2016-12-28T04:13:41.884Z,977.73
2016-12-28T04:14:47.036Z,977.71
2016-12-28T04:15:39.694Z,977.71
2016-12-28T04:16:39.970Z,977.68
2016-12-28T04:17:39.000Z,977.73
2016-12-28T04:18:39.522Z,977.69
2016-12-28T04:19:35.110Z,977.67
2016-12-28T04:20:39.459Z,977.67
2016-12-28T04:21:50.176Z,977.61
2016-12-28T04:22:43.713Z,977.62
2016-12-28T04:23:44.601Z,977.61
2016-12-28T04:24:40.132Z,977.61
2016-12-28T04:25:34.712Z,977.57
2016-12-28T04:26:38.719Z,977.57
2016-12-28T04:27:56.418Z,977.52
2016-12-28T04:28:50.515Z,977.53
2016-12-28T04:29:47.241Z,977.53
2016-12-28T04:30:45.174Z,977.50
2016-12-28T04:31:39.475Z,977.51
2016-12-28T04:32:36.596Z,977.50
2016-12-28T04:33:39.631Z,977.46
2016-12-28T04:34:41.623Z,977.42
2016-12-28T04:35:35.940Z,977.46
2016-12-28T04:36:44.690Z,977.45
2016-12-28T04:37:40.501Z,977.44
2016-12-28T04:38:40.425Z,977.47
2016-12-28T04:39:45.846Z,977.44
2016-12-28T04:40:44.199Z,977.47
2016-12-28T04:41:36.512Z,977.46
2016-12-28T04:42:58.233Z,977.44
2016-12-28T04:43:44.466Z,977.44
2016-12-28T04:44:41.068Z,977.43
2016-12-28T04:45:41.640Z,977.43
2016-12-28T04:46:42.808Z,977.42
2016-12-28T04:47:40.520Z,977.43
2016-12-28T04:48:39.788Z,977.39
2016-12-28T04:49:38.288Z,977.42
2016-12-28T04:50:40.630Z,977.42
2016-12-28T04:51:46.768Z,977.41
2016-12-28T04:52:45.552Z,977.43
2016-12-28T04:53:39.797Z,977.44
2016-12-28T04:54:34.170Z,977.43
2016-12-28T04:55:41.631Z,977.48
2016-12-28T04:56:39.270Z,977.46
2016-12-28T04:57:39.508Z,977.48
2016-12-28T04:58:28.953Z,977.49
2016-12-28T04:59:33.520Z,977.52
2016-12-28T05:00:39.660Z,977.52
2016-12-28T05:01:26.289Z,977.54
2016-12-28T05:02:39.663Z,977.56
2016-12-28T05:03:55.130Z,977.56
2016-12-28T05:04:33.074Z,977.58
2016-12-28T05:05:39.247Z,977.58
2016-12-28T05:06:35.006Z,977.56
2016-12-28T05:07:44.545Z,977.57
2016-12-28T05:08:45.647Z,977.60
2016-12-28T05:09:41.450Z,977.61
2016-12-28T05:10:39.679Z,977.55
2016-12-28T05:11:38.890Z,977.51
2016-12-28T05:12:49.599Z,977.57
2016-12-28T05:13:46.450Z,977.53
2016-12-28T05:15:03.081Z,977.54
2016-12-28T05:15:34.978Z,977.54
2016-12-28T05:16:37.398Z,977.54
2016-12-28T05:17:50.907Z,977.55
2016-12-28T05:18:48.497Z,977.52
2016-12-28T05:19:37.969Z,977.53
2016-12-28T05:20:33.919Z,977.52
2016-12-28T05:21:48.379Z,977.53
2016-12-28T05:22:39.430Z,977.52
2016-12-28T05:23:45.562Z,977.51
2016-12-28T05:24:49.193Z,977.51
2016-12-28T05:25:49.589Z,977.49
2016-12-28T05:26:43.219Z,977.54
2016-12-28T05:27:27.247Z,977.54
2016-12-28T05:28:35.683Z,977.61
2016-12-28T05:29:52.703Z,977.59
2016-12-28T05:30:42.604Z,977.59
2016-12-28T05:31:46.333Z,977.57
2016-12-28T05:32:38.675Z,977.57
2016-12-28T05:33:45.923Z,977.59
2016-12-28T05:34:41.901Z,977.64
2016-12-28T05:35:44.787Z,977.62
2016-12-28T05:36:41.891Z,977.64
2016-12-28T05:37:40.230Z,977.62
2016-12-28T05:38:42.182Z,977.63
2016-12-28T05:39:38.260Z,977.66
2016-12-28T05:41:00.212Z,977.66
2016-12-28T05:41:46.564Z,977.60
2016-12-28T05:42:30.632Z,977.55
2016-12-28T05:43:33.183Z,977.53
2016-12-28T05:44:40.728Z,977.59
2016-12-28T05:45:44.887Z,977.62
2016-12-28T05:46:49.774Z,977.61
2016-12-28T05:47:48.500Z,977.57
2016-12-28T05:48:33.257Z,977.55
2016-12-28T05:49:34.244Z,977.58
2016-12-28T05:50:39.635Z,977.55
2016-12-28T05:51:55.114Z,977.58
2016-12-28T05:52:38.302Z,977.53
2016-12-28T05:53:52.203Z,977.55
2016-12-28T05:54:34.445Z,977.55
2016-12-28T05:55:46.214Z,977.57
2016-12-28T05:56:45.313Z,977.60
2016-12-28T05:57:50.125Z,977.60
2016-12-28T05:58:49.820Z,977.58
2016-12-28T05:59:46.432Z,977.62
2016-12-28T06:00:40.732Z,977.63
2016-12-28T06:01:40.424Z,977.58
2016-12-28T06:02:34.205Z,977.57
2016-12-28T06:03:45.530Z,977.53
2016-12-28T06:04:42.139Z,977.52
2016-12-28T06:05:40.740Z,977.51
2016-12-28T06:07:04.777Z,977.50
2016-12-28T06:07:42.901Z,977.46
2016-12-28T06:08:40.445Z,977.52
2016-12-28T06:09:34.116Z,977.52
2016-12-28T06:10:38.905Z,977.49
2016-12-28T06:11:39.771Z,977.44
2016-12-28T06:12:38.529Z,977.45
2016-12-28T06:13:44.667Z,977.44
2016-12-28T06:14:47.752Z,977.49
2016-12-28T06:15:35.726Z,977.51
2016-12-28T06:16:43.035Z,977.50
2016-12-28T06:17:43.820Z,977.53
2016-12-28T06:18:50.747Z,977.54
2016-12-28T06:19:34.515Z,977.48
2016-12-28T06:20:44.356Z,977.47
2016-12-28T06:21:49.765Z,977.50
2016-12-28T06:22:34.397Z,977.49
2016-12-28T06:23:41.904Z,977.47
2016-12-28T06:24:38.495Z,977.49
2016-12-28T06:25:45.431Z,977.50
2016-12-28T06:26:40.812Z,977.51
2016-12-28T06:27:35.921Z,977.55
2016-12-28T06:28:40.209Z,977.51
2016-12-28T06:29:37.993Z,977.57
2016-12-28T06:30:39.117Z,977.57
2016-12-28T06:31:45.866Z,977.65
2016-12-28T06:32:35.493Z,977.67
2016-12-28T06:33:39.814Z,977.69
2016-12-28T06:34:39.811Z,977.75
2016-12-28T06:35:44.257Z,977.77
2016-12-28T06:36:41.525Z,977.81
2016-12-28T06:37:40.242Z,977.79
2016-12-28T06:38:51.497Z,977.84
2016-12-28T06:39:44.249Z,977.85
2016-12-28T06:40:33.239Z,977.95
2016-12-28T06:41:41.974Z,977.93
2016-12-28T06:42:39.782Z,977.92
2016-12-28T06:43:44.220Z,977.96
2016-12-28T06:45:38.177Z,977.92
2016-12-28T06:46:48.155Z,977.93
2016-12-28T06:47:47.042Z,977.98
2016-12-28T06:48:50.760Z,977.96
2016-12-28T06:49:44.625Z,977.94
2016-12-28T06:50:44.202Z,977.90
2016-12-28T06:51:52.610Z,977.92
2016-12-28T06:52:45.997Z,977.85
2016-12-28T06:53:43.741Z,977.85
2016-12-28T06:54:39.470Z,977.88
2016-12-28T06:55:43.552Z,977.87
2016-12-28T06:56:39.738Z,977.83
2016-12-28T06:57:31.519Z,977.85
2016-12-28T06:58:43.320Z,977.81
2016-12-28T06:59:40.275Z,977.77
2016-12-28T07:00:46.585Z,977.77
2016-12-28T07:01:43.453Z,977.75
2016-12-28T07:02:59.784Z,977.75
2016-12-28T07:04:02.605Z,977.69
2016-12-28T07:04:40.112Z,977.73
2016-12-28T07:05:39.557Z,977.75
2016-12-28T07:06:45.224Z,977.76
2016-12-28T07:07:31.922Z,977.73
2016-12-28T07:08:39.345Z,977.71
2016-12-28T07:09:40.494Z,977.78
2016-12-28T07:10:42.423Z,977.77
2016-12-28T07:11:43.515Z,977.78
2016-12-28T07:12:53.247Z,977.81
2016-12-28T07:13:35.880Z,977.83
2016-12-28T07:14:22.791Z,977.79
2016-12-28T07:15:39.634Z,977.80
2016-12-28T07:16:37.384Z,977.83
2016-12-28T07:17:38.881Z,977.85
2016-12-28T07:18:49.575Z,977.91
2016-12-28T07:19:15.981Z,977.94
2016-12-28T07:20:45.479Z,977.98
2016-12-28T07:21:29.257Z,977.95
2016-12-28T07:22:42.132Z,977.96
2016-12-28T07:23:44.279Z,977.96
2016-12-28T07:24:41.924Z,977.95
2016-12-28T07:25:47.366Z,977.96
2016-12-28T07:26:44.003Z,977.97
2016-12-28T07:27:34.521Z,977.99
2016-12-28T07:28:41.640Z,977.96
2016-12-28T07:29:34.729Z,978.00
2016-12-28T07:30:34.685Z,977.99
2016-12-28T07:31:40.900Z,978.00
2016-12-28T07:32:40.831Z,978.03
2016-12-28T07:33:43.757Z,978.07
2016-12-28T07:34:51.801Z,978.06
2016-12-28T07:35:45.118Z,978.06
2016-12-28T07:36:58.826Z,978.08
2016-12-28T07:37:45.899Z,978.11
2016-12-28T07:38:29.272Z,978.08
2016-12-28T07:39:46.603Z,978.07
2016-12-28T07:40:49.779Z,978.05
2016-12-28T07:41:39.224Z,978.09
2016-12-28T07:42:50.895Z,978.12
2016-12-28T07:43:39.649Z,978.10
2016-12-28T07:44:52.103Z,978.13
2016-12-28T07:45:43.419Z,978.18
2016-12-28T07:46:54.164Z,978.20
2016-12-28T07:47:27.670Z,978.26
2016-12-28T07:48:39.606Z,978.23
2016-12-28T07:49:39.662Z,978.24
2016-12-28T07:50:35.708Z,978.29
2016-12-28T07:51:40.744Z,978.26
2016-12-28T07:52:33.969Z,978.25
2016-12-28T07:53:39.838Z,978.24
2016-12-28T07:54:39.073Z,978.22
2016-12-28T07:55:42.866Z,978.18
2016-12-28T07:56:38.967Z,978.21
2016-12-28T07:57:38.609Z,978.23
2016-12-28T07:58:34.631Z,978.20
2016-12-28T07:59:46.660Z,978.22
2016-12-28T08:00:38.413Z,978.25
2016-12-28T08:01:37.545Z,978.27
2016-12-28T08:02:46.691Z,978.29
2016-12-28T08:03:47.967Z,978.38
2016-12-28T08:04:40.800Z,978.34
2016-12-28T08:05:43.254Z,978.36
2016-12-28T08:06:38.778Z,978.33
2016-12-28T08:07:49.760Z,978.27
2016-12-28T08:08:46.804Z,978.25
2016-12-28T08:09:36.426Z,978.22
2016-12-28T08:10:51.212Z,978.24
2016-12-28T08:11:46.791Z,978.23
2016-12-28T08:12:50.954Z,978.26
2016-12-28T08:13:18.515Z,978.24
2016-12-28T08:14:40.462Z,978.23
2016-12-28T08:15:43.826Z,978.30
2016-12-28T08:16:33.008Z,978.29
2016-12-28T08:17:44.461Z,978.36
2016-12-28T08:18:50.190Z,978.36
2016-12-28T08:19:39.331Z,978.40
2016-12-28T08:20:46.418Z,978.36
2016-12-28T08:21:43.371Z,978.38
2016-12-28T08:22:38.739Z,978.36
2016-12-28T08:23:55.640Z,978.37
2016-12-28T08:24:39.721Z,978.33
2016-12-28T08:25:38.212Z,978.38
2016-12-28T08:26:42.838Z,978.39
2016-12-28T08:27:46.108Z,978.41
2016-12-28T08:28:33.845Z,978.41
2016-12-28T08:29:28.664Z,978.45
2016-12-28T08:30:39.840Z,978.43
2016-12-28T08:31:37.204Z,978.46
2016-12-28T08:32:41.999Z,978.45
2016-12-28T08:33:44.027Z,978.44
2016-12-28T08:34:35.528Z,978.42
2016-12-28T08:35:35.425Z,978.43
2016-12-28T08:36:43.175Z,978.42
2016-12-28T08:37:39.912Z,978.49
2016-12-28T08:39:09.850Z,978.55
2016-12-28T08:39:44.290Z,978.61
2016-12-28T08:40:31.743Z,978.67
2016-12-28T08:41:46.713Z,978.73
2016-12-28T08:42:50.769Z,978.68
2016-12-28T08:43:40.447Z,978.70
2016-12-28T08:44:45.511Z,978.71
2016-12-28T08:45:41.360Z,978.70
2016-12-28T08:46:53.926Z,978.63
2016-12-28T08:47:37.339Z,978.64
2016-12-28T08:48:33.978Z,978.63
2016-12-28T08:49:26.698Z,978.67
2016-12-28T08:50:35.695Z,978.73
2016-12-28T08:51:44.174Z,978.74
2016-12-28T08:52:39.971Z,978.73
2016-12-28T08:53:37.766Z,978.78
2016-12-28T08:54:39.533Z,978.75
2016-12-28T08:55:40.633Z,978.82
2016-12-28T08:56:46.784Z,978.81
2016-12-28T08:57:31.356Z,978.84
2016-12-28T08:58:38.488Z,978.87
2016-12-28T08:59:40.520Z,978.82
2016-12-28T09:00:44.107Z,978.87
2016-12-28T09:01:34.152Z,978.84
2016-12-28T09:02:42.505Z,978.87
2016-12-28T09:03:34.233Z,978.87
2016-12-28T09:04:39.655Z,978.90
2016-12-28T09:05:44.370Z,978.92
2016-12-28T09:06:39.088Z,978.96
2016-12-28T09:07:32.669Z,979.02
2016-12-28T09:08:41.513Z,979.02
2016-12-28T09:09:38.522Z,979.01
2016-12-28T09:10:46.460Z,979.01
2016-12-28T09:11:33.759Z,979.01
2016-12-28T09:12:39.933Z,979.01
2016-12-28T09:13:40.651Z,979.05
2016-12-28T09:14:33.802Z,979.04
2016-12-28T09:15:36.679Z,979.06
2016-12-28T09:16:34.341Z,979.06
2016-12-28T09:17:42.362Z,979.09
2016-12-28T09:18:40.617Z,979.12
2016-12-28T09:19:35.348Z,979.15
2016-12-28T09:20:38.412Z,979.19
2016-12-28T09:21:40.409Z,979.15
2016-12-28T09:22:30.212Z,979.16
2016-12-28T09:23:18.359Z,979.14
2016-12-28T09:24:33.796Z,979.12
2016-12-28T09:25:32.438Z,979.15
2016-12-28T09:26:32.660Z,979.13
2016-12-28T09:27:40.497Z,979.10
2016-12-28T09:28:38.006Z,979.14
2016-12-28T09:29:45.499Z,979.16
2016-12-28T09:30:34.411Z,979.16
2016-12-28T09:31:32.989Z,979.22
2016-12-28T09:32:39.672Z,979.18
2016-12-28T09:33:37.943Z,979.19
2016-12-28T09:34:34.692Z,979.21
2016-12-28T09:35:31.309Z,979.22
2016-12-28T09:36:33.305Z,979.23
2016-12-28T09:37:36.817Z,979.25
2016-12-28T09:38:39.747Z,979.30
2016-12-28T09:39:39.634Z,979.36
2016-12-28T09:40:45.620Z,979.32
2016-12-28T09:41:35.985Z,979.34
2016-12-28T09:42:39.998Z,979.33
2016-12-28T09:43:35.069Z,979.36
2016-12-28T09:44:39.193Z,979.41
2016-12-28T09:45:32.660Z,979.43
2016-12-28T09:46:33.083Z,979.55
2016-12-28T09:47:34.998Z,979.50
2016-12-28T09:48:38.083Z,979.52
2016-12-28T09:49:28.505Z,979.48
2016-12-28T09:50:35.049Z,979.42
2016-12-28T09:51:36.282Z,979.45
2016-12-28T09:52:33.419Z,979.45
2016-12-28T09:53:39.475Z,979.41
2016-12-28T09:54:39.046Z,979.35
2016-12-28T09:55:34.741Z,979.34
2016-12-28T09:56:28.863Z,979.39
2016-12-28T09:57:33.142Z,979.35
2016-12-28T09:58:34.294Z,979.38
2016-12-28T09:59:33.054Z,979.32
2016-12-28T10:00:33.795Z,979.30
2016-12-28T10:01:30.338Z,979.28
2016-12-28T10:02:37.273Z,979.21
2016-12-28T10:03:29.318Z,979.16
2016-12-28T10:04:33.578Z,979.15
2016-12-28T10:05:35.818Z,979.11
2016-12-28T10:06:28.619Z,979.11
2016-12-28T10:07:23.383Z,979.08
2016-12-28T10:08:38.415Z,979.07
2016-12-28T10:09:37.852Z,979.07
2016-12-28T10:10:31.040Z,979.03
2016-12-28T10:11:33.489Z,979.06
2016-12-28T10:12:39.252Z,979.03
2016-12-28T10:13:35.978Z,978.96
2016-12-28T10:14:34.137Z,978.95
2016-12-28T10:15:27.307Z,978.96
2016-12-28T10:16:41.726Z,979.00
2016-12-28T10:17:34.549Z,978.96
2016-12-28T10:18:29.470Z,978.98
2016-12-28T10:19:36.143Z,979.03
2016-12-28T10:20:42.011Z,979.01
2016-12-28T10:21:25.486Z,979.02
2016-12-28T10:22:37.022Z,979.17
2016-12-28T10:23:32.503Z,978.97
2016-12-28T10:24:34.262Z,978.98
2016-12-28T10:25:36.574Z,979.00
2016-12-28T10:26:35.977Z,978.96
2016-12-28T10:27:35.706Z,979.04
2016-12-28T10:28:45.189Z,979.00
2016-12-28T10:29:35.552Z,978.98
2016-12-28T10:30:39.896Z,979.00
2016-12-28T10:31:30.511Z,978.97
2016-12-28T10:32:41.118Z,978.97
2016-12-28T10:33:34.351Z,978.93
2016-12-28T10:34:49.943Z,978.92
2016-12-28T10:35:40.639Z,978.93
2016-12-28T10:36:36.829Z,978.89
2016-12-28T10:37:33.372Z,978.94
2016-12-28T10:38:36.054Z,978.89
2016-12-28T10:39:34.189Z,978.87
2016-12-28T10:40:33.691Z,978.87
2016-12-28T10:41:29.185Z,978.89
2016-12-28T10:42:39.069Z,978.90
2016-12-28T10:43:32.610Z,978.84
2016-12-28T10:44:33.740Z,978.85
2016-12-28T10:45:43.873Z,978.79
2016-12-28T10:46:31.787Z,978.77
2016-12-28T10:47:34.142Z,978.75
2016-12-28T10:48:34.690Z,978.75
2016-12-28T10:49:38.815Z,978.75
2016-12-28T10:50:36.685Z,978.70
2016-12-28T10:51:35.861Z,978.67
2016-12-28T10:52:38.624Z,978.68
2016-12-28T10:53:45.557Z,978.67
2016-12-28T10:54:31.962Z,978.65
2016-12-28T10:55:39.506Z,978.64
2016-12-28T10:56:41.064Z,978.63
2016-12-28T10:57:34.158Z,978.65
2016-12-28T10:58:38.595Z,978.65
2016-12-28T10:59:35.945Z,978.65
2016-12-28T11:00:35.558Z,978.63
2016-12-28T11:01:34.493Z,978.63
2016-12-28T11:02:45.752Z,978.66
2016-12-28T11:03:32.422Z,978.59
2016-12-28T11:04:37.897Z,978.57
2016-12-28T11:05:33.311Z,978.57
2016-12-28T11:06:40.358Z,978.59
2016-12-28T11:07:34.206Z,978.60
2016-12-28T11:08:32.286Z,978.55
2016-12-28T11:09:37.203Z,978.56
2016-12-28T11:10:49.154Z,978.58
2016-12-28T11:11:39.896Z,978.52
2016-12-28T11:12:25.577Z,978.47
2016-12-28T11:13:43.194Z,978.45
2016-12-28T11:14:35.188Z,978.34
2016-12-28T11:15:45.041Z,978.32
2016-12-28T11:16:38.276Z,978.36
2016-12-28T11:17:39.922Z,978.33
2016-12-28T11:18:38.384Z,978.27
2016-12-28T11:19:42.482Z,978.23
2016-12-28T11:20:42.815Z,978.22
2016-12-28T11:21:35.947Z,978.22
2016-12-28T11:22:56.166Z,978.22
2016-12-28T11:23:26.947Z,978.22
2016-12-28T11:24:43.655Z,978.21
2016-12-28T11:25:39.701Z,978.24
2016-12-28T11:26:18.562Z,978.29
2016-12-28T11:27:49.522Z,978.25
2016-12-28T11:28:39.498Z,978.24
2016-12-28T11:29:50.722Z,978.26
2016-12-28T11:30:44.769Z,978.20
2016-12-28T11:31:50.575Z,978.23
2016-12-28T11:32:39.400Z,978.20
2016-12-28T11:33:44.543Z,978.24
2016-12-28T11:34:41.416Z,978.17
2016-12-28T11:35:48.720Z,978.19
2016-12-28T11:36:37.163Z,978.18
2016-12-28T11:37:48.567Z,978.12
2016-12-28T11:38:32.845Z,978.03
2016-12-28T11:39:45.292Z,978.03
2016-12-28T11:40:40.460Z,977.98
2016-12-28T11:41:46.325Z,977.98
2016-12-28T11:42:55.174Z,978.01
2016-12-28T11:43:48.174Z,977.95
2016-12-28T11:44:46.325Z,977.95
2016-12-28T11:45:34.166Z,977.96
2016-12-28T11:46:39.517Z,977.96
2016-12-28T11:47:51.347Z,978.00
2016-12-28T11:48:37.918Z,977.93
2016-12-28T11:49:32.459Z,977.89
2016-12-28T11:50:46.885Z,977.94
2016-12-28T11:51:43.357Z,977.93
2016-12-28T11:52:38.583Z,977.94
2016-12-28T11:53:39.846Z,977.92
2016-12-28T11:54:44.112Z,977.91
2016-12-28T11:55:38.401Z,977.90
2016-12-28T11:56:39.938Z,977.91
2016-12-28T11:57:33.444Z,977.89
2016-12-28T11:58:45.836Z,977.81
2016-12-28T11:59:48.510Z,977.85
2016-12-28T12:00:33.836Z,977.86
2016-12-28T12:01:41.893Z,977.85
2016-12-28T12:02:21.159Z,977.79
2016-12-28T12:03:49.063Z,977.76
2016-12-28T12:04:42.820Z,977.76
2016-12-28T12:05:41.586Z,977.74
2016-12-28T12:06:44.175Z,977.72
2016-12-28T12:07:34.515Z,977.66
2016-12-28T12:08:40.796Z,977.62
2016-12-28T12:09:36.336Z,977.61
2016-12-28T12:10:40.847Z,977.61
2016-12-28T12:11:43.477Z,977.62
2016-12-28T12:12:37.857Z,977.64
2016-12-28T12:13:42.572Z,977.60
2016-12-28T12:14:40.559Z,977.60
2016-12-28T12:15:44.216Z,977.63
2016-12-28T12:16:44.592Z,977.58
2016-12-28T12:17:52.051Z,977.60
2016-12-28T12:18:40.485Z,977.59
2016-12-28T12:19:39.180Z,977.61
2016-12-28T12:20:33.732Z,977.61
2016-12-28T12:21:40.490Z,977.60
2016-12-28T12:22:46.529Z,977.57
2016-12-28T12:23:42.058Z,977.53
2016-12-28T12:24:33.582Z,977.49
2016-12-28T12:25:48.696Z,977.49
2016-12-28T12:26:44.691Z,977.44
2016-12-28T12:27:38.526Z,977.42
2016-12-28T12:28:41.698Z,977.34
2016-12-28T12:29:35.078Z,977.35